Dallas, South Dakota
Current Conditions -  °F | °C
As of 5:53 PM on Wednesday 22 Oct 2014 (Local Time) from KICR Reporting Station
Clear Clear  
Wind Chill: 64°   Ceiling: Unl
Heat Index: 64°   Visibility: 10mi
Dew Point: 42°   Wind: 8mph
Humidity: 45%   Direction: 310°NW
Pressure: 29.98"   Gusts: NA
Location:  43.24°N, 99.52°W
Report Text: KICR 222253Z AUTO 31007KT 10SM CLR 18/06 A2998 RMK AO2 SLP146 T01780056
Loading
Personal Weather Stations






























Interactive Weather Map
Tropical Storm Tracking
New forecast layout! Learn more

10-Day Weather Forecast

Advertisements
Track Severe Weather on mobile